Time;durP1;ratioP1;P1;durP2;ratioP2;P2;SDS_P1;SDS_P2;PMS_P1;PMS_P2;Temp;Humidity;BMP_temperature;BMP_pressure;BME280_temperature;BME280_humidity;BME280_pressure;Samples;Min_cycle;Max_cycle;Signal;HPM_P1;HPM_P2
2021/11/06 00:02:21;;;;;;;6.67;5.43;;;7.30;99.90;;;;;;5026399;28;20268;-70
2021/11/06 00:04:48;;;;;;;7.97;5.60;;;7.30;99.90;;;;;;5026406;28;20205;-70
2021/11/06 00:07:15;;;;;;;5.67;5.17;;;7.40;99.90;;;;;;5026479;28;20228;-71
2021/11/06 00:09:43;;;;;;;6.80;4.77;;;7.40;99.90;;;;;;5026642;28;20229;-71
2021/11/06 00:12:10;;;;;;;6.47;4.90;;;7.40;99.90;;;;;;5025968;28;20208;-71
2021/11/06 00:14:37;;;;;;;7.67;6.00;;;7.40;99.90;;;;;;5025983;28;20674;-70
2021/11/06 00:17:04;;;;;;;7.63;5.23;;;7.40;99.90;;;;;;5026199;28;20209;-70
2021/11/06 00:19:31;;;;;;;7.23;5.70;;;7.40;99.90;;;;;;5026437;28;20212;-71
2021/11/06 00:21:57;;;;;;;10.90;5.83;;;7.40;99.90;;;;;;5025937;28;20265;-70
2021/11/06 00:24:24;;;;;;;6.50;5.63;;;7.50;99.90;;;;;;5026315;28;20209;-70
2021/11/06 00:26:52;;;;;;;6.07;5.57;;;7.40;99.90;;;;;;5026017;28;20289;-70
2021/11/06 00:29:19;;;;;;;8.07;5.83;;;7.50;99.90;;;;;;5025851;28;20232;-70
2021/11/06 00:31:46;;;;;;;7.47;5.83;;;7.50;99.90;;;;;;5026303;28;20244;-70
2021/11/06 00:34:13;;;;;;;7.93;6.00;;;7.50;99.90;;;;;;5026142;28;20261;-70
2021/11/06 00:36:40;;;;;;;11.43;6.13;;;7.50;99.90;;;;;;5025703;28;20654;-70
2021/11/06 00:39:07;;;;;;;6.77;6.07;;;7.60;99.90;;;;;;5026063;28;20213;-71
2021/11/06 00:41:34;;;;;;;9.77;5.87;;;7.60;99.90;;;;;;5025963;28;20229;-70
2021/11/06 00:44:03;;;;;;;6.50;5.83;;;7.60;99.90;;;;;;5025655;28;20619;-71
2021/11/06 00:46:29;;;;;;;10.13;6.00;;;7.60;99.90;;;;;;5025822;28;20250;-70
2021/11/06 00:48:57;;;;;;;7.80;6.07;;;7.60;99.90;;;;;;5025725;28;20234;-70
2021/11/06 00:51:23;;;;;;;8.07;6.10;;;7.60;99.90;;;;;;5025470;28;20295;-70
2021/11/06 00:53:50;;;;;;;7.70;5.33;;;7.60;99.90;;;;;;5025826;28;20208;-70
2021/11/06 00:56:16;;;;;;;7.23;5.73;;;7.60;99.90;;;;;;5025376;28;20413;-70
2021/11/06 00:58:43;;;;;;;8.50;6.07;;;7.60;99.90;;;;;;5025025;28;20244;-70
2021/11/06 01:01:11;;;;;;;7.87;5.80;;;7.50;99.90;;;;;;5024950;28;20837;-70
2021/11/06 01:03:38;;;;;;;11.97;6.23;;;7.60;99.90;;;;;;5025562;28;20208;-70
2021/11/06 01:06:04;;;;;;;9.30;5.80;;;7.60;99.90;;;;;;5025349;28;20224;-70
2021/11/06 01:08:31;;;;;;;6.90;5.77;;;7.60;99.90;;;;;;5026021;28;20205;-71
2021/11/06 01:10:58;;;;;;;8.00;6.17;;;7.70;99.90;;;;;;5025220;28;20233;-70
2021/11/06 01:13:24;;;;;;;9.23;6.47;;;7.70;99.90;;;;;;5025462;28;20259;-70
2021/11/06 01:15:51;;;;;;;7.27;6.10;;;7.70;99.90;;;;;;5025568;28;20205;-70
2021/11/06 01:18:19;;;;;;;8.87;6.30;;;7.70;99.90;;;;;;5025337;28;20249;-70
2021/11/06 01:20:46;;;;;;;8.17;5.93;;;7.70;99.90;;;;;;5024957;28;20699;-70
2021/11/06 01:23:13;;;;;;;8.47;6.20;;;7.70;99.90;;;;;;5025194;28;20232;-70
2021/11/06 01:25:40;;;;;;;10.67;6.03;;;7.70;99.90;;;;;;5025221;28;20257;-71
2021/11/06 01:28:06;;;;;;;12.73;6.77;;;7.70;99.90;;;;;;5024940;28;20243;-70
2021/11/06 01:30:33;;;;;;;11.63;6.47;;;7.70;99.90;;;;;;5025091;28;20786;-71
2021/11/06 01:33:00;;;;;;;9.03;6.37;;;7.80;99.90;;;;;;5025157;28;20209;-70
2021/11/06 01:35:28;;;;;;;9.70;6.00;;;7.80;99.90;;;;;;5025285;28;20232;-70
2021/11/06 01:37:57;;;;;;;8.30;6.20;;;7.80;99.90;;;;;;5025232;28;20224;-70
2021/11/06 01:40:24;;;;;;;8.27;6.17;;;7.80;99.90;;;;;;5024927;28;20581;-71
2021/11/06 01:42:51;;;;;;;10.30;5.83;;;7.80;99.90;;;;;;5024959;28;20232;-70
2021/11/06 01:45:19;;;;;;;9.20;6.53;;;7.80;99.90;;;;;;5024658;28;20256;-70
2021/11/06 01:47:46;;;;;;;7.23;5.97;;;7.80;99.90;;;;;;5025090;28;20209;-71
2021/11/06 01:50:14;;;;;;;10.87;6.50;;;7.80;99.90;;;;;;5025215;28;20262;-71
2021/11/06 01:52:42;;;;;;;9.47;6.53;;;7.80;99.90;;;;;;5025084;28;20209;-70
2021/11/06 01:55:10;;;;;;;11.80;6.33;;;7.80;99.90;;;;;;5024907;28;20244;-70
2021/11/06 01:57:37;;;;;;;14.03;6.80;;;7.80;99.90;;;;;;5024622;28;20213;-71
2021/11/06 02:00:08;;;;;;;10.13;6.07;;;7.80;99.90;;;;;;5024652;28;20786;-70
2021/11/06 02:02:35;;;;;;;12.10;7.00;;;7.90;99.90;;;;;;5024714;28;20229;-71
2021/11/06 02:05:02;;;;;;;11.63;6.63;;;7.90;99.90;;;;;;5024924;28;20287;-70
2021/11/06 02:07:29;;;;;;;11.17;6.50;;;7.90;99.90;;;;;;5024475;28;20225;-71
2021/11/06 02:09:57;;;;;;;8.43;6.50;;;7.90;99.90;;;;;;5024809;28;20229;-71
2021/11/06 02:12:23;;;;;;;10.33;6.70;;;7.90;99.90;;;;;;5027378;28;20200;-70
2021/11/06 02:14:50;;;;;;;11.37;7.30;;;7.90;99.90;;;;;;5016626;28;20602;-71
2021/11/06 02:17:17;;;;;;;17.57;7.10;;;7.80;99.90;;;;;;5008178;28;20217;-71
2021/11/06 02:19:43;;;;;;;10.97;7.00;;;7.90;99.90;;;;;;5008619;28;20205;-70
2021/11/06 02:22:12;;;;;;;12.83;7.37;;;7.80;99.90;;;;;;5008100;28;20600;-71
2021/11/06 02:24:40;;;;;;;12.37;7.40;;;7.90;99.90;;;;;;5008208;28;20282;-70
2021/11/06 02:27:07;;;;;;;14.10;7.00;;;7.90;99.90;;;;;;5007903;28;20210;-71
2021/11/06 02:29:35;;;;;;;14.23;7.13;;;7.90;99.90;;;;;;5007902;28;20209;-70
2021/11/06 02:32:02;;;;;;;13.67;7.00;;;7.90;99.90;;;;;;5007791;28;20660;-70
2021/11/06 02:34:29;;;;;;;13.47;7.70;;;7.90;99.90;;;;;;5008171;28;20552;-71
2021/11/06 02:36:56;;;;;;;10.33;7.00;;;7.90;99.90;;;;;;5007938;28;20209;-71
2021/11/06 02:39:25;;;;;;;12.80;8.17;;;7.90;99.90;;;;;;5008322;28;20209;-71
2021/11/06 02:41:58;;;;;;;10.53;7.00;;;7.90;99.90;;;;;;5007887;28;20230;-70
2021/11/06 02:44:25;;;;;;;13.13;7.77;;;7.90;99.90;;;;;;5007735;28;20282;-70
2021/11/06 02:46:51;;;;;;;13.47;7.57;;;7.90;99.90;;;;;;5007921;28;20209;-70
2021/11/06 02:49:18;;;;;;;15.13;7.63;;;8.00;99.90;;;;;;5007367;28;20632;-70
2021/11/06 02:51:44;;;;;;;11.03;7.50;;;7.90;99.90;;;;;;5007613;28;20734;-70
2021/11/06 02:54:12;;;;;;;10.47;7.57;;;7.90;99.90;;;;;;5007890;28;20270;-70
2021/11/06 02:56:40;;;;;;;9.40;7.27;;;7.90;99.90;;;;;;5007921;28;20218;-70
2021/11/06 02:59:06;;;;;;;13.07;7.70;;;7.90;99.90;;;;;;5007770;28;20206;-70
2021/11/06 03:01:33;;;;;;;13.33;7.60;;;7.90;99.90;;;;;;5007060;28;20321;-70
2021/11/06 03:04:00;;;;;;;13.27;8.07;;;7.90;99.90;;;;;;5007542;28;20205;-70
2021/11/06 03:06:27;;;;;;;12.00;7.67;;;7.90;99.90;;;;;;5007785;28;20251;-71
2021/11/06 03:08:54;;;;;;;11.83;7.20;;;8.00;99.90;;;;;;5007564;28;20240;-71
2021/11/06 03:11:21;;;;;;;12.67;7.23;;;8.00;99.90;;;;;;5007674;28;20205;-70
2021/11/06 03:13:49;;;;;;;14.43;8.27;;;8.00;99.90;;;;;;5007014;28;20206;-70
2021/11/06 03:16:16;;;;;;;9.33;7.70;;;7.90;99.90;;;;;;5007530;28;20286;-70
2021/11/06 03:18:43;;;;;;;13.40;7.37;;;7.90;99.90;;;;;;5007568;28;20209;-70
2021/11/06 03:21:10;;;;;;;11.37;7.67;;;8.00;99.90;;;;;;5006764;28;20583;-70
2021/11/06 03:23:36;;;;;;;14.60;8.20;;;8.00;99.90;;;;;;5007054;28;20237;-70
2021/11/06 03:26:03;;;;;;;12.03;7.50;;;7.90;99.90;;;;;;5007196;28;20252;-70
2021/11/06 03:28:30;;;;;;;10.77;7.30;;;8.00;99.90;;;;;;5007369;28;20301;-70
2021/11/06 03:30:58;;;;;;;13.20;7.13;;;8.00;99.90;;;;;;5007052;28;20210;-71
2021/11/06 03:33:24;;;;;;;13.13;8.53;;;8.00;99.90;;;;;;5006932;28;20210;-71
2021/11/06 03:35:51;;;;;;;14.40;7.60;;;8.00;99.90;;;;;;5007205;28;20274;-71
2021/11/06 03:38:18;;;;;;;11.17;7.50;;;8.00;99.90;;;;;;5006909;28;20664;-70
2021/11/06 03:40:44;;;;;;;10.57;7.13;;;8.00;99.90;;;;;;5007040;28;20226;-71
2021/11/06 03:43:11;;;;;;;12.33;7.17;;;8.00;99.90;;;;;;5006817;28;20278;-70
2021/11/06 03:45:38;;;;;;;11.83;7.70;;;8.00;99.90;;;;;;5006934;28;20261;-70
2021/11/06 03:48:06;;;;;;;11.60;7.70;;;8.00;99.90;;;;;;5007045;28;20630;-70
2021/11/06 03:50:33;;;;;;;13.43;7.93;;;8.00;99.90;;;;;;5006985;28;20213;-70
2021/11/06 03:53:00;;;;;;;13.57;7.17;;;8.00;99.90;;;;;;5006720;28;20254;-71
2021/11/06 03:55:26;;;;;;;10.57;6.20;;;8.00;99.90;;;;;;5006760;28;20740;-70
2021/11/06 03:57:53;;;;;;;12.37;6.90;;;8.00;99.90;;;;;;5006695;28;20263;-71
2021/11/06 04:00:21;;;;;;;11.03;6.70;;;8.00;99.90;;;;;;5006427;28;20249;-71
2021/11/06 04:02:49;;;;;;;13.50;6.50;;;8.00;99.90;;;;;;5006567;28;20236;-71
2021/11/06 04:05:17;;;;;;;11.70;6.50;;;8.00;99.90;;;;;;5006534;28;20261;-70
2021/11/06 04:07:45;;;;;;;11.73;6.67;;;8.00;99.90;;;;;;5006497;28;20235;-70
2021/11/06 04:10:12;;;;;;;12.50;6.60;;;8.00;99.90;;;;;;5006403;28;20262;-71
2021/11/06 04:12:39;;;;;;;10.63;6.40;;;8.00;99.90;;;;;;5006619;28;20255;-70
2021/11/06 04:15:09;;;;;;;7.90;5.53;;;8.10;99.90;;;;;;5006624;28;20210;-71
2021/11/06 04:17:36;;;;;;;11.07;5.70;;;8.10;99.90;;;;;;5006530;28;20197;-70
2021/11/06 04:20:04;;;;;;;14.40;5.63;;;8.10;99.90;;;;;;5006302;28;20573;-71
2021/11/06 04:22:32;;;;;;;10.80;6.33;;;8.10;99.90;;;;;;5006453;28;20275;-70
2021/11/06 04:24:59;;;;;;;16.30;6.10;;;8.00;99.90;;;;;;5006190;28;20209;-70
2021/11/06 04:27:26;;;;;;;11.13;6.20;;;8.00;99.90;;;;;;5006428;28;20276;-71
2021/11/06 04:29:52;;;;;;;10.20;5.97;;;8.10;99.90;;;;;;5006487;28;20201;-71
2021/11/06 04:32:19;;;;;;;11.27;5.87;;;8.10;99.90;;;;;;5005955;28;20209;-71
2021/11/06 04:34:45;;;;;;;12.30;6.23;;;8.00;99.90;;;;;;5004939;28;20209;-71
2021/11/06 04:37:12;;;;;;;7.90;5.57;;;8.00;99.90;;;;;;5006134;28;20263;-70
2021/11/06 04:39:40;;;;;;;9.23;5.10;;;8.10;99.90;;;;;;5006369;28;20213;-71
2021/11/06 04:42:07;;;;;;;10.10;5.10;;;8.10;99.90;;;;;;5006174;28;20683;-71
2021/11/06 04:44:34;;;;;;;7.93;5.13;;;8.00;99.90;;;;;;5006240;28;20264;-71
2021/11/06 04:47:01;;;;;;;10.43;5.80;;;8.10;99.90;;;;;;5005914;28;20205;-71
2021/11/06 04:49:28;;;;;;;7.33;4.87;;;8.10;99.90;;;;;;5006230;28;20270;-71
2021/11/06 04:51:55;;;;;;;8.63;4.47;;;8.10;99.90;;;;;;5006305;28;20205;-70
2021/11/06 04:54:21;;;;;;;8.93;4.33;;;8.10;99.90;;;;;;5006003;28;20206;-71
2021/11/06 04:56:50;;;;;;;8.37;4.30;;;8.10;99.90;;;;;;5005760;28;20243;-71
2021/11/06 04:59:17;;;;;;;8.13;4.40;;;8.10;99.90;;;;;;5005716;28;20300;-71
2021/11/06 05:01:44;;;;;;;5.23;4.03;;;8.10;99.90;;;;;;5006107;28;20247;-71
2021/11/06 05:04:11;;;;;;;10.20;4.17;;;8.20;99.90;;;;;;5005746;28;20268;-71
2021/11/06 05:06:37;;;;;;;9.37;4.57;;;8.10;99.90;;;;;;5005896;28;20229;-71
2021/11/06 05:09:04;;;;;;;8.80;3.53;;;8.10;99.90;;;;;;5005552;28;20229;-71
2021/11/06 05:11:31;;;;;;;7.07;3.70;;;8.10;99.90;;;;;;5005567;28;20209;-70
2021/11/06 05:13:59;;;;;;;7.03;4.10;;;8.20;99.90;;;;;;5005869;28;20214;-70
2021/11/06 05:16:27;;;;;;;8.37;3.60;;;8.10;99.90;;;;;;5005583;28;20237;-70
2021/11/06 05:18:55;;;;;;;8.57;4.53;;;8.10;99.90;;;;;;5005634;28;20209;-70
2021/11/06 05:21:22;;;;;;;6.30;4.27;;;8.10;99.90;;;;;;5005585;28;20238;-70
2021/11/06 05:23:49;;;;;;;8.90;3.90;;;8.10;99.90;;;;;;5005431;28;20278;-70
2021/11/06 05:26:16;;;;;;;9.23;4.47;;;8.10;99.90;;;;;;5005459;28;20205;-70
2021/11/06 05:28:43;;;;;;;4.53;3.80;;;8.20;99.90;;;;;;5005583;28;20201;-70
2021/11/06 05:31:11;;;;;;;7.60;4.20;;;8.10;99.90;;;;;;5004896;28;20589;-70
2021/11/06 05:33:38;;;;;;;8.00;3.93;;;8.10;99.90;;;;;;5005338;28;20281;-70
2021/11/06 05:36:05;;;;;;;8.23;4.13;;;8.20;99.90;;;;;;5005250;28;20210;-70
2021/11/06 05:38:32;;;;;;;7.33;4.40;;;8.10;99.90;;;;;;5005578;28;20216;-70
2021/11/06 05:40:58;;;;;;;4.93;4.07;;;8.10;99.90;;;;;;5005256;28;20625;-70
2021/11/06 05:43:25;;;;;;;7.13;3.63;;;8.20;99.90;;;;;;5005239;28;20337;-70
2021/11/06 05:45:52;;;;;;;6.63;4.53;;;8.10;99.90;;;;;;5007498;28;20259;-70
2021/11/06 05:48:23;;;;;;;4.83;3.50;;;8.20;99.90;;;;;;5009036;28;20641;-70
2021/11/06 05:50:50;;;;;;;7.83;3.87;;;8.20;99.90;;;;;;5008620;28;20198;-70
2021/11/06 05:53:17;;;;;;;5.73;3.33;;;8.20;99.90;;;;;;5008793;28;20326;-70
2021/11/06 05:55:44;;;;;;;4.07;3.60;;;8.20;99.90;;;;;;5008692;28;20247;-70
2021/11/06 05:58:10;;;;;;;6.67;4.03;;;8.30;99.90;;;;;;5008578;28;20202;-70
2021/11/06 06:00:37;;;;;;;6.37;3.20;;;8.20;99.90;;;;;;5008299;28;20298;-70
2021/11/06 06:03:04;;;;;;;6.70;4.10;;;8.20;99.90;;;;;;5008361;28;20238;-70
2021/11/06 06:05:32;;;;;;;6.03;3.87;;;8.30;99.90;;;;;;5008348;28;20282;-70
2021/11/06 06:07:58;;;;;;;4.27;3.40;;;8.30;99.90;;;;;;5007986;28;20642;-70
2021/11/06 06:10:25;;;;;;;5.07;3.30;;;8.30;99.90;;;;;;5008219;28;20205;-70
2021/11/06 06:12:53;;;;;;;7.70;3.97;;;8.30;99.90;;;;;;5008245;28;20218;-70
2021/11/06 06:15:20;;;;;;;6.30;3.40;;;8.40;99.90;;;;;;5008025;28;20209;-70
2021/11/06 06:17:47;;;;;;;4.70;4.00;;;8.30;99.90;;;;;;5008412;28;20255;-70
2021/11/06 06:20:15;;;;;;;7.00;3.97;;;8.30;99.90;;;;;;5007771;28;20659;-70
2021/11/06 06:22:43;;;;;;;4.90;3.27;;;8.30;99.90;;;;;;5008103;28;20233;-70
2021/11/06 06:25:11;;;;;;;4.10;3.37;;;8.40;99.90;;;;;;5007992;28;20337;-70
2021/11/06 06:27:38;;;;;;;8.33;4.20;;;8.40;99.90;;;;;;5007826;28;20236;-70
2021/11/06 06:30:06;;;;;;;6.50;3.77;;;8.40;99.90;;;;;;5007984;28;20213;-70
2021/11/06 06:32:33;;;;;;;6.43;3.67;;;8.40;99.90;;;;;;5007982;28;20266;-70
2021/11/06 06:35:00;;;;;;;8.07;4.07;;;8.50;99.90;;;;;;5007836;28;20206;-70
2021/11/06 06:37:26;;;;;;;7.57;3.73;;;8.40;99.90;;;;;;5007725;28;20209;-70
2021/11/06 06:39:54;;;;;;;5.80;3.73;;;8.50;99.90;;;;;;5007968;28;20247;-70
2021/11/06 06:42:23;;;;;;;4.17;3.77;;;8.50;99.90;;;;;;5007623;28;20213;-70
2021/11/06 06:44:50;;;;;;;6.17;4.57;;;8.50;99.90;;;;;;5008089;28;20228;-70
2021/11/06 06:47:17;;;;;;;4.80;3.60;;;8.50;99.90;;;;;;5007959;28;20266;-70
2021/11/06 06:49:45;;;;;;;5.37;3.67;;;8.50;99.90;;;;;;5007962;28;20205;-70
2021/11/06 06:52:11;;;;;;;6.40;3.87;;;8.50;99.90;;;;;;5007760;28;20503;-70
2021/11/06 06:54:38;;;;;;;5.70;3.63;;;8.60;99.90;;;;;;5007651;28;20236;-70
2021/11/06 06:57:08;;;;;;;6.97;3.37;;;8.60;99.90;;;;;;5006708;28;20233;-70
2021/11/06 06:59:35;;;;;;;8.73;3.90;;;8.60;99.90;;;;;;5007502;28;20247;-71
2021/11/06 07:02:03;;;;;;;5.27;3.73;;;8.60;99.90;;;;;;5007689;28;20270;-70
2021/11/06 07:04:29;;;;;;;5.83;4.20;;;8.60;99.90;;;;;;5007674;28;20249;-70
2021/11/06 07:06:56;;;;;;;6.17;4.50;;;8.70;99.90;;;;;;5007407;28;20235;-70
2021/11/06 07:09:23;;;;;;;6.13;4.33;;;8.70;99.90;;;;;;5007684;28;20201;-71
2021/11/06 07:11:51;;;;;;;8.00;4.10;;;8.70;99.90;;;;;;5007396;28;20255;-70
2021/11/06 07:14:20;;;;;;;5.27;4.03;;;8.70;99.90;;;;;;5007496;28;20266;-70
2021/11/06 07:16:48;;;;;;;4.27;3.87;;;8.70;99.90;;;;;;5007478;28;20575;-70
2021/11/06 07:19:15;;;;;;;5.47;4.50;;;8.70;99.90;;;;;;5007331;28;20210;-70
2021/11/06 07:21:42;;;;;;;7.07;4.20;;;8.70;99.90;;;;;;5007271;28;20210;-70
2021/11/06 07:24:09;;;;;;;5.63;4.13;;;8.80;99.90;;;;;;5007233;28;20325;-70
2021/11/06 07:26:36;;;;;;;4.53;3.70;;;8.80;99.90;;;;;;5006960;28;20260;-71
2021/11/06 07:29:03;;;;;;;5.13;4.40;;;8.80;99.90;;;;;;5007295;28;20213;-70
2021/11/06 07:31:31;;;;;;;7.00;3.93;;;8.80;99.90;;;;;;5007318;28;20452;-70
2021/11/06 07:33:57;;;;;;;5.37;3.80;;;8.80;99.90;;;;;;5006803;28;20486;-70
2021/11/06 07:36:24;;;;;;;5.30;4.10;;;8.80;99.90;;;;;;5007206;28;20206;-70
2021/11/06 07:38:53;;;;;;;7.37;4.20;;;8.80;99.90;;;;;;5006911;28;20281;-70
2021/11/06 07:41:20;;;;;;;4.83;3.90;;;8.80;99.90;;;;;;5006927;28;20229;-70
2021/11/06 07:43:47;;;;;;;7.77;4.67;;;8.80;99.90;;;;;;5006676;28;20870;-70
2021/11/06 07:46:14;;;;;;;5.70;4.20;;;8.80;99.90;;;;;;5006948;28;20209;-70
2021/11/06 07:48:42;;;;;;;8.63;4.97;;;8.70;99.90;;;;;;5006934;28;20626;-70
2021/11/06 07:51:09;;;;;;;4.20;3.83;;;8.80;99.90;;;;;;5006691;28;20209;-70
2021/11/06 07:53:36;;;;;;;5.43;4.67;;;8.80;99.90;;;;;;5006866;28;20214;-70
2021/11/06 07:56:03;;;;;;;6.53;4.20;;;8.80;99.90;;;;;;5006636;28;20210;-70
2021/11/06 07:58:29;;;;;;;5.77;4.27;;;8.80;99.90;;;;;;5006783;28;20567;-70
2021/11/06 08:00:57;;;;;;;5.07;4.27;;;8.80;99.90;;;;;;5006466;28;20286;-70
2021/11/06 08:03:24;;;;;;;5.33;4.53;;;8.80;99.90;;;;;;5006383;28;20722;-70
2021/11/06 08:05:52;;;;;;;5.27;4.77;;;8.80;99.90;;;;;;5006377;28;20233;-70
2021/11/06 08:08:19;;;;;;;7.03;4.43;;;8.80;99.90;;;;;;5006091;28;20605;-71
2021/11/06 08:10:45;;;;;;;5.70;5.03;;;8.80;99.90;;;;;;5006674;28;20274;-71
2021/11/06 08:13:12;;;;;;;5.03;4.00;;;8.80;99.90;;;;;;5006453;28;20282;-70
2021/11/06 08:15:39;;;;;;;6.47;5.20;;;8.90;99.90;;;;;;5006819;28;20258;-71
2021/11/06 08:18:06;;;;;;;4.80;4.40;;;8.90;99.90;;;;;;5006283;28;20205;-70
2021/11/06 08:20:32;;;;;;;5.90;4.20;;;8.90;99.90;;;;;;5006404;28;20210;-71
2021/11/06 08:23:00;;;;;;;4.83;4.40;;;9.00;99.90;;;;;;5006579;28;20240;-71
2021/11/06 08:25:27;;;;;;;6.77;3.70;;;9.00;99.90;;;;;;5006387;28;20202;-71
2021/11/06 08:27:58;;;;;;;4.80;4.40;;;9.10;99.90;;;;;;5006344;28;20206;-71
2021/11/06 08:30:27;;;;;;;6.10;4.53;;;9.10;99.90;;;;;;5006600;28;20235;-70
2021/11/06 08:32:55;;;;;;;5.20;4.70;;;9.10;99.90;;;;;;5006541;28;20300;-71
2021/11/06 08:35:25;;;;;;;4.90;4.23;;;9.10;99.90;;;;;;5006181;28;20270;-70
2021/11/06 08:37:52;;;;;;;4.93;4.53;;;9.10;99.90;;;;;;5006363;28;20220;-71
2021/11/06 08:40:21;;;;;;;7.53;4.80;;;9.20;99.90;;;;;;5006142;28;20205;-71
2021/11/06 08:42:48;;;;;;;5.20;4.60;;;9.20;99.90;;;;;;5005917;28;20221;-71
2021/11/06 08:45:16;;;;;;;6.83;4.43;;;9.20;99.90;;;;;;5005873;28;20305;-70
2021/11/06 08:47:43;;;;;;;7.63;4.57;;;9.30;99.90;;;;;;5006178;28;20238;-71
2021/11/06 08:50:13;;;;;;;4.60;4.20;;;9.30;99.90;;;;;;5005959;28;20210;-71
2021/11/06 08:52:40;;;;;;;4.63;4.20;;;9.30;99.90;;;;;;5005934;28;20194;-71
2021/11/06 08:55:08;;;;;;;6.90;4.40;;;9.30;99.90;;;;;;5005875;28;20691;-71
2021/11/06 08:57:38;;;;;;;6.33;4.00;;;9.30;99.90;;;;;;5005926;28;20209;-71
2021/11/06 09:00:06;;;;;;;6.83;5.03;;;9.40;99.90;;;;;;5005477;28;20238;-71
2021/11/06 09:02:36;;;;;;;5.13;4.33;;;9.40;99.90;;;;;;5005939;28;20205;-71
2021/11/06 09:05:04;;;;;;;4.43;4.13;;;9.40;99.90;;;;;;5005812;28;20269;-71
2021/11/06 09:07:33;;;;;;;6.57;5.20;;;9.40;99.90;;;;;;5005699;28;20286;-71
2021/11/06 09:10:00;;;;;;;5.97;5.10;;;9.40;99.90;;;;;;5005382;28;20213;-71
2021/11/06 09:12:26;;;;;;;6.83;5.23;;;9.40;99.90;;;;;;5005687;28;20255;-71
2021/11/06 09:14:54;;;;;;;6.03;5.43;;;9.40;99.90;;;;;;5005587;28;20614;-71
2021/11/06 09:17:21;;;;;;;5.77;5.27;;;9.40;99.90;;;;;;5005535;28;20586;-71
2021/11/06 09:19:50;;;;;;;5.43;4.60;;;9.50;99.90;;;;;;5005133;28;20559;-70
2021/11/06 09:22:16;;;;;;;7.27;5.20;;;9.50;99.90;;;;;;5005498;28;20209;-71
2021/11/06 09:24:44;;;;;;;9.07;5.20;;;9.50;99.90;;;;;;5005181;28;20314;-71
2021/11/06 09:27:11;;;;;;;5.50;5.03;;;9.60;99.90;;;;;;5005078;28;20310;-70
2021/11/06 09:29:41;;;;;;;5.40;4.90;;;9.60;99.90;;;;;;5005375;28;20209;-71
2021/11/06 09:32:10;;;;;;;5.77;4.50;;;9.60;99.90;;;;;;5005643;28;20213;-72
2021/11/06 09:34:37;;;;;;;6.83;5.20;;;9.60;99.90;;;;;;5005338;28;20202;-70
2021/11/06 09:37:04;;;;;;;5.23;4.70;;;9.70;99.90;;;;;;5005349;28;20217;-70
2021/11/06 09:39:31;;;;;;;5.37;4.87;;;9.70;99.90;;;;;;5005196;28;20676;-70
2021/11/06 09:41:58;;;;;;;6.63;4.23;;;9.70;99.90;;;;;;5005135;28;20271;-70
2021/11/06 09:44:26;;;;;;;5.50;4.20;;;9.80;99.90;;;;;;5005458;28;20240;-70
2021/11/06 09:46:52;;;;;;;4.80;4.40;;;9.90;99.90;;;;;;5005169;28;20209;-70
2021/11/06 09:49:21;;;;;;;8.97;4.50;;;9.90;99.90;;;;;;5005166;28;20217;-70
2021/11/06 09:51:47;;;;;;;4.60;4.00;;;9.90;99.90;;;;;;5005420;28;20266;-70
2021/11/06 09:54:15;;;;;;;4.63;4.23;;;9.90;99.90;;;;;;5004884;28;20205;-71
2021/11/06 09:56:41;;;;;;;6.57;4.70;;;10.00;99.90;;;;;;5005143;28;20218;-71
2021/11/06 09:59:08;;;;;;;6.93;4.33;;;10.00;99.90;;;;;;5005184;28;20241;-70
2021/11/06 10:01:36;;;;;;;4.83;4.00;;;10.10;99.90;;;;;;5004744;28;20298;-70
2021/11/06 10:04:07;;;;;;;4.37;3.80;;;10.10;99.90;;;;;;5004350;28;20690;-70
2021/11/06 10:06:37;;;;;;;4.13;3.73;;;10.20;99.90;;;;;;5005193;28;20225;-71
2021/11/06 10:09:08;;;;;;;5.40;4.00;;;10.20;99.90;;;;;;5004983;28;20376;-71
2021/11/06 10:11:35;;;;;;;3.63;3.20;;;10.20;99.90;;;;;;5005016;28;20198;-71
2021/11/06 10:14:04;;;;;;;3.93;3.63;;;10.20;99.90;;;;;;5004495;28;20214;-71
2021/11/06 10:16:33;;;;;;;4.20;3.70;;;10.40;99.90;;;;;;5005466;28;20213;-71
2021/11/06 10:19:08;;;;;;;3.50;3.20;;;10.50;99.90;;;;;;5004862;28;20206;-71
2021/11/06 10:21:37;;;;;;;3.43;3.10;;;10.50;99.90;;;;;;5004657;28;20201;-71
2021/11/06 10:24:04;;;;;;;5.57;3.57;;;10.60;99.90;;;;;;5004659;28;20739;-71
2021/11/06 10:26:31;;;;;;;4.93;3.13;;;10.60;99.90;;;;;;5004867;28;20236;-71
2021/11/06 10:29:09;;;;;;;4.10;3.43;;;10.70;99.90;;;;;;5004773;28;20217;-71
2021/11/06 10:32:05;;;;;;;5.57;3.40;;;10.80;99.90;;;;;;5004830;28;20190;-71
2021/11/06 10:34:37;;;;;;;3.37;3.10;;;10.90;99.90;;;;;;5008304;28;20324;-71
2021/11/06 10:37:11;;;;;;;3.77;2.97;;;11.00;99.90;;;;;;5008026;28;20209;-71
2021/11/06 10:39:38;;;;;;;4.77;2.70;;;11.00;99.90;;;;;;5007914;28;20228;-71
2021/11/06 10:42:13;;;;;;;3.97;3.10;;;11.10;99.90;;;;;;5007982;28;21017;-71
2021/11/06 10:44:42;;;;;;;4.93;2.80;;;11.10;99.90;;;;;;5007930;28;20266;-71
2021/11/06 10:47:09;;;;;;;6.23;3.20;;;11.10;99.90;;;;;;5007731;28;20205;-71
2021/11/06 10:49:38;;;;;;;3.23;2.83;;;11.10;99.90;;;;;;5008014;28;20243;-71
2021/11/06 10:52:08;;;;;;;3.90;2.80;;;11.10;99.90;;;;;;5007688;28;20264;-71
2021/11/06 10:54:54;;;;;;;2.73;2.53;;;11.10;99.90;;;;;;5007485;28;20252;-71
2021/11/06 10:57:23;;;;;;;5.73;3.00;;;11.00;99.90;;;;;;5007448;28;20241;-71
2021/11/06 11:00:07;;;;;;;3.37;2.60;;;10.80;99.90;;;;;;5007546;28;20241;-71
2021/11/06 11:02:34;;;;;;;3.00;2.67;;;10.60;99.90;;;;;;5007365;28;20671;-71
2021/11/06 11:05:01;;;;;;;3.63;2.50;;;10.60;99.90;;;;;;5007559;28;20715;-71
2021/11/06 11:07:32;;;;;;;2.90;2.70;;;10.60;99.90;;;;;;5007542;28;20230;-71
2021/11/06 11:10:00;;;;;;;4.27;2.93;;;10.60;99.90;;;;;;5007278;28;20245;-71
2021/11/06 11:12:27;;;;;;;5.07;2.60;;;10.50;99.90;;;;;;5007119;28;20216;-71
2021/11/06 11:14:55;;;;;;;3.93;2.47;;;10.50;99.90;;;;;;5007450;28;20210;-71
2021/11/06 11:17:40;;;;;;;3.27;2.90;;;10.50;99.90;;;;;;5007065;28;21053;-71
2021/11/06 11:20:23;;;;;;;3.07;2.83;;;10.50;99.90;;;;;;5007419;28;20247;-71
2021/11/06 11:23:08;;;;;;;2.50;2.20;;;10.40;99.90;;;;;;5007808;28;20294;-71
2021/11/06 11:25:36;;;;;;;5.87;2.40;;;10.40;99.90;;;;;;5007045;28;20699;-71
2021/11/06 11:28:03;;;;;;;2.47;2.27;;;10.40;99.90;;;;;;5007089;28;20217;-71
2021/11/06 11:30:30;;;;;;;2.70;2.50;;;10.40;99.90;;;;;;5007355;28;20240;-71
2021/11/06 11:32:59;;;;;;;3.10;2.20;;;10.40;99.90;;;;;;5007170;28;20209;-71
2021/11/06 11:35:27;;;;;;;3.87;2.40;;;10.40;99.90;;;;;;5007028;28;20214;-71
2021/11/06 11:37:56;;;;;;;4.30;2.33;;;10.40;99.90;;;;;;5007294;28;20214;-71
2021/11/06 11:40:26;;;;;;;3.00;2.80;;;10.40;99.90;;;;;;5007218;28;20217;-71
2021/11/06 11:43:06;;;;;;;3.27;2.00;;;10.40;99.90;;;;;;5007087;28;20225;-71
2021/11/06 11:45:38;;;;;;;4.50;2.00;;;10.50;99.90;;;;;;5007069;28;20221;-71
2021/11/06 11:48:09;;;;;;;3.00;2.50;;;10.50;99.90;;;;;;5006913;28;20294;-71
2021/11/06 11:50:40;;;;;;;2.60;2.17;;;10.60;99.90;;;;;;5006934;28;20606;-71
2021/11/06 11:53:10;;;;;;;3.87;2.50;;;10.70;99.90;;;;;;5006795;28;20201;-71
2021/11/06 11:55:42;;;;;;;2.43;2.23;;;10.70;99.90;;;;;;5006988;28;20198;-71
2021/11/06 11:58:12;;;;;;;2.70;2.10;;;10.80;99.90;;;;;;5006436;28;20198;-71
2021/11/06 12:00:44;;;;;;;2.93;2.43;;;10.80;99.90;;;;;;5006364;28;20318;-71
2021/11/06 12:03:26;;;;;;;3.67;2.63;;;10.80;99.90;;;;;;5006574;28;20374;-71
2021/11/06 12:05:52;;;;;;;3.70;2.63;;;10.90;99.90;;;;;;5006543;28;20244;-71
2021/11/06 12:08:34;;;;;;;6.73;3.17;;;10.90;99.90;;;;;;5006573;28;20278;-71
2021/11/06 12:11:20;;;;;;;2.80;2.27;;;10.90;99.90;;;;;;5006637;28;20204;-71
2021/11/06 12:13:50;;;;;;;4.43;2.80;;;10.90;99.90;;;;;;5006494;28;20705;-71
2021/11/06 12:16:18;;;;;;;3.53;2.67;;;11.00;99.90;;;;;;5006734;28;20198;-71
2021/11/06 12:18:55;;;;;;;4.43;2.70;;;11.00;99.90;;;;;;5006850;28;20256;-71
2021/11/06 12:21:32;;;;;;;3.00;2.70;;;11.00;99.90;;;;;;5006822;28;20233;-71
2021/11/06 12:24:16;;;;;;;3.13;2.67;;;11.00;99.90;;;;;;5006609;28;20301;-71
2021/11/06 12:26:47;;;;;;;3.20;2.40;;;11.10;99.90;;;;;;5005949;28;20205;-73
2021/11/06 12:29:26;;;;;;;3.60;2.40;;;11.10;99.90;;;;;;5006671;28;20221;-71
2021/11/06 12:31:55;;;;;;;2.63;2.43;;;11.10;99.90;;;;;;5006516;28;20206;-71
2021/11/06 12:34:35;;;;;;;2.97;2.63;;;11.10;99.90;;;;;;5006372;28;20206;-71
2021/11/06 12:37:03;;;;;;;3.10;2.37;;;11.10;99.90;;;;;;5006124;28;20213;-71
2021/11/06 12:39:50;;;;;;;3.20;2.30;;;11.20;99.90;;;;;;5006062;28;20249;-71
2021/11/06 12:42:18;;;;;;;3.67;2.37;;;11.40;99.90;;;;;;5006102;28;21016;-71
2021/11/06 12:44:52;;;;;;;3.63;2.13;;;11.40;99.90;;;;;;5005890;28;20269;-71
2021/11/06 12:47:20;;;;;;;2.40;2.20;;;11.40;99.90;;;;;;5005793;28;20670;-71
2021/11/06 12:49:48;;;;;;;3.53;2.47;;;11.50;99.90;;;;;;5006065;28;20213;-71
2021/11/06 12:52:16;;;;;;;2.17;2.07;;;11.50;99.90;;;;;;5005502;28;20750;-71
2021/11/06 12:54:43;;;;;;;3.13;2.30;;;11.50;99.90;;;;;;5004556;28;20650;-71
2021/11/06 12:57:11;;;;;;;3.17;2.23;;;11.30;99.90;;;;;;5005732;28;20213;-71
2021/11/06 12:59:46;;;;;;;2.60;2.30;;;11.30;99.90;;;;;;5005865;28;20230;-71